Time;durP1;ratioP1;P1;durP2;ratioP2;P2;SDS_P1;SDS_P2;PMS_P1;PMS_P2;Temp;Humidity;BMP_temperature;BMP_pressure;BME280_temperature;BME280_humidity;BME280_pressure;Samples;Min_cycle;Max_cycle;Signal;HPM_P1;HPM_P2
2023/07/30 00:01:44;;;;;;;8.20;1.77;;;15.90;99.90;;;;;;5115935;28;20219;-48
2023/07/30 00:04:10;;;;;;;7.13;1.87;;;15.90;99.90;;;;;;5115433;28;20179;-46
2023/07/30 00:06:35;;;;;;;4.57;1.80;;;15.80;99.90;;;;;;5115545;28;20666;-47
2023/07/30 00:09:01;;;;;;;4.73;1.90;;;15.80;99.90;;;;;;5115767;28;20201;-47
2023/07/30 00:11:27;;;;;;;2.90;1.80;;;15.80;99.90;;;;;;5097173;28;20673;-48
2023/07/30 00:13:52;;;;;;;3.90;1.80;;;15.70;99.90;;;;;;5115974;28;20187;-48
2023/07/30 00:16:18;;;;;;;6.77;2.43;;;15.70;99.90;;;;;;5115288;28;20210;-47
2023/07/30 00:18:44;;;;;;;3.50;1.50;;;15.60;99.90;;;;;;5115563;28;20311;-47
2023/07/30 00:21:09;;;;;;;5.20;1.70;;;15.50;99.90;;;;;;5115436;28;20217;-47
2023/07/30 00:23:35;;;;;;;7.17;1.90;;;15.50;99.90;;;;;;5095876;28;20272;-47
2023/07/30 00:26:01;;;;;;;6.43;1.87;;;15.50;99.90;;;;;;5097030;28;20209;-46
2023/07/30 00:28:26;;;;;;;5.50;2.10;;;15.40;99.90;;;;;;5097343;28;20216;-47
2023/07/30 00:30:52;;;;;;;8.30;2.50;;;15.40;99.90;;;;;;5097440;28;20186;-48
2023/07/30 00:33:17;;;;;;;8.03;2.53;;;15.30;99.90;;;;;;5097392;28;20186;-45
2023/07/30 00:35:43;;;;;;;18.60;2.40;;;15.30;99.90;;;;;;5096259;28;20225;-46
2023/07/30 00:38:09;;;;;;;7.43;2.37;;;15.30;99.90;;;;;;5096319;28;20186;-45
2023/07/30 00:40:40;;;;;;;11.63;2.73;;;15.30;99.90;;;;;;5115357;28;20183;-44
2023/07/30 00:43:06;;;;;;;8.43;2.27;;;15.30;99.90;;;;;;5096726;28;20665;-45
2023/07/30 00:45:32;;;;;;;9.87;2.03;;;15.30;99.90;;;;;;5096360;28;20230;-46
2023/07/30 00:47:58;;;;;;;9.53;2.20;;;15.40;99.90;;;;;;5114635;28;20182;-46
2023/07/30 00:50:23;;;;;;;7.63;2.07;;;15.40;99.90;;;;;;5114633;28;20547;-46
2023/07/30 00:52:49;;;;;;;6.73;2.30;;;15.50;99.90;;;;;;5114808;28;20708;-45
2023/07/30 00:55:15;;;;;;;7.13;2.10;;;15.50;99.90;;;;;;5114368;28;20186;-46
2023/07/30 00:57:42;;;;;;;7.07;2.40;;;15.50;99.90;;;;;;5096282;28;20654;-45
2023/07/30 01:00:09;;;;;;;5.70;2.30;;;15.60;99.90;;;;;;5096013;28;20186;-45
2023/07/30 01:02:38;;;;;;;7.53;2.40;;;15.60;99.90;;;;;;5114451;28;20181;-46
2023/07/30 01:05:04;;;;;;;5.60;2.20;;;15.70;99.90;;;;;;5096195;28;20208;-45
2023/07/30 01:07:31;;;;;;;7.40;2.10;;;15.80;99.90;;;;;;5114947;28;20541;-46
2023/07/30 01:09:57;;;;;;;7.60;2.53;;;15.80;99.90;;;;;;5114441;28;20552;-45
2023/07/30 01:12:24;;;;;;;8.43;2.30;;;15.80;99.90;;;;;;5079323;28;20190;-46
2023/07/30 01:14:51;;;;;;;5.97;2.10;;;15.90;99.90;;;;;;5114332;28;20186;-46
2023/07/30 01:17:18;;;;;;;7.20;2.33;;;16.00;99.90;;;;;;5114239;28;20211;-45
2023/07/30 01:19:43;;;;;;;9.33;2.47;;;16.00;99.90;;;;;;5095701;28;20215;-45
2023/07/30 01:22:09;;;;;;;8.03;2.20;;;16.10;99.90;;;;;;5095993;28;20186;-46
2023/07/30 01:24:35;;;;;;;5.47;2.10;;;16.10;99.90;;;;;;5096095;28;20182;-46
2023/07/30 01:27:11;;;;;;;6.60;2.20;;;16.20;99.90;;;;;;5095857;28;20216;-46
2023/07/30 01:29:54;;;;;;;4.67;2.00;;;16.20;99.90;;;;;;5114032;28;20211;-45
2023/07/30 01:32:25;;;;;;;6.80;2.20;;;16.20;99.90;;;;;;5114326;28;20159;-45
2023/07/30 01:34:53;;;;;;;8.20;2.00;;;16.30;99.90;;;;;;5079440;28;20239;-46
2023/07/30 01:37:21;;;;;;;7.10;2.40;;;16.20;99.90;;;;;;5095680;28;20298;-45
2023/07/30 01:39:48;;;;;;;7.93;2.33;;;16.30;99.90;;;;;;5096155;28;20711;-46
2023/07/30 01:42:15;;;;;;;4.33;2.17;;;16.30;99.90;;;;;;5095750;28;20645;-45
2023/07/30 01:44:44;;;;;;;7.80;2.50;;;16.30;99.90;;;;;;5095703;28;20181;-46
2023/07/30 01:47:11;;;;;;;10.10;2.90;;;16.30;99.90;;;;;;5096059;28;20292;-40
2023/07/30 01:49:36;;;;;;;4.97;2.13;;;16.30;99.90;;;;;;5095726;28;20194;-42
2023/07/30 01:52:02;;;;;;;5.07;2.27;;;16.30;99.90;;;;;;5095192;28;20186;-43
2023/07/30 01:54:28;;;;;;;8.00;2.10;;;16.30;99.90;;;;;;5095685;28;20637;-41
2023/07/30 01:56:54;;;;;;;5.00;2.10;;;16.30;99.90;;;;;;5113849;28;20288;-42
2023/07/30 01:59:20;;;;;;;9.13;3.03;;;16.30;99.90;;;;;;5113860;28;20182;-42
2023/07/30 02:01:45;;;;;;;4.70;2.07;;;16.40;99.90;;;;;;5113710;28;20204;-42
2023/07/30 02:04:11;;;;;;;4.40;2.10;;;16.40;99.90;;;;;;5113821;28;20182;-43
2023/07/30 02:06:37;;;;;;;5.40;2.10;;;16.40;99.90;;;;;;5113994;28;20206;-41
2023/07/30 02:09:03;;;;;;;6.77;2.03;;;16.40;99.90;;;;;;5095388;28;20214;-40
2023/07/30 02:11:29;;;;;;;6.97;2.50;;;16.40;99.90;;;;;;5113738;28;20177;-42
2023/07/30 02:13:55;;;;;;;6.13;2.20;;;16.40;99.90;;;;;;5095550;28;20187;-42
2023/07/30 02:16:21;;;;;;;10.57;1.97;;;16.40;99.90;;;;;;5095257;28;20221;-42
2023/07/30 02:18:47;;;;;;;4.53;2.30;;;16.40;99.90;;;;;;5095435;28;20186;-43
2023/07/30 02:21:13;;;;;;;4.47;1.90;;;16.40;99.90;;;;;;5095241;28;20629;-42
2023/07/30 02:23:38;;;;;;;9.87;2.30;;;16.30;99.90;;;;;;5095480;28;20214;-41
2023/07/30 02:26:04;;;;;;;10.13;2.43;;;16.30;99.90;;;;;;5094976;28;20212;-41
2023/07/30 02:28:30;;;;;;;4.57;1.90;;;16.20;99.90;;;;;;5078491;28;20276;-42
2023/07/30 02:30:56;;;;;;;7.37;2.40;;;16.10;99.90;;;;;;5095516;28;20197;-39
2023/07/30 02:33:21;;;;;;;5.83;2.57;;;16.00;99.90;;;;;;5113617;28;20183;-41
2023/07/30 02:35:47;;;;;;;5.90;2.67;;;16.00;99.90;;;;;;5113373;28;20586;-42
2023/07/30 02:38:14;;;;;;;5.80;2.17;;;15.90;99.90;;;;;;5113696;28;20179;-43
2023/07/30 02:40:43;;;;;;;6.20;2.10;;;15.80;99.90;;;;;;5094951;28;20618;-41
2023/07/30 02:43:08;;;;;;;6.60;2.27;;;15.90;99.90;;;;;;5078760;28;20194;-40
2023/07/30 02:45:34;;;;;;;5.90;1.90;;;15.80;99.90;;;;;;5113414;28;20572;-42
2023/07/30 02:48:07;;;;;;;6.33;2.33;;;15.90;99.90;;;;;;5097481;28;20240;-43
2023/07/30 02:50:34;;;;;;;8.50;2.17;;;15.90;99.90;;;;;;5098626;28;20555;-41
2023/07/30 02:52:59;;;;;;;6.53;1.77;;;15.90;99.90;;;;;;5099346;28;20187;-42
2023/07/30 02:55:26;;;;;;;6.93;2.03;;;15.90;99.90;;;;;;5081648;28;20615;-42
2023/07/30 02:57:54;;;;;;;9.47;1.90;;;15.90;99.90;;;;;;5117746;28;20190;-42
2023/07/30 03:00:20;;;;;;;5.00;1.70;;;15.90;99.90;;;;;;5117311;28;20190;-41
2023/07/30 03:02:49;;;;;;;10.50;2.27;;;15.90;99.90;;;;;;5116879;28;20188;-42
2023/07/30 03:05:16;;;;;;;9.57;2.13;;;15.90;99.90;;;;;;5116889;28;20193;-42
2023/07/30 03:07:43;;;;;;;7.37;2.03;;;15.90;99.90;;;;;;5116669;28;20193;-43
2023/07/30 03:10:09;;;;;;;7.00;2.03;;;15.90;99.90;;;;;;5098127;28;20251;-43
2023/07/30 03:12:35;;;;;;;9.03;2.10;;;15.90;99.90;;;;;;5099159;28;20558;-46
2023/07/30 03:15:01;;;;;;;5.20;1.60;;;15.90;99.90;;;;;;5117675;28;20179;-47
2023/07/30 03:17:34;;;;;;;5.10;1.80;;;15.80;99.90;;;;;;5117693;28;20205;-41
2023/07/30 03:20:00;;;;;;;5.97;1.83;;;15.80;99.90;;;;;;5100018;28;20197;-46
2023/07/30 03:22:25;;;;;;;4.93;1.83;;;15.80;99.90;;;;;;5117713;28;20178;-46
2023/07/30 03:24:51;;;;;;;4.20;1.20;;;15.80;99.90;;;;;;5117429;28;20178;-47
2023/07/30 03:27:17;;;;;;;4.07;1.47;;;15.70;99.90;;;;;;5098853;28;20289;-43
2023/07/30 03:29:44;;;;;;;4.57;1.33;;;15.70;99.90;;;;;;5099012;28;20235;-42
2023/07/30 03:32:10;;;;;;;5.53;1.67;;;15.60;99.90;;;;;;5099146;28;20594;-42
2023/07/30 03:34:36;;;;;;;6.10;1.40;;;15.50;99.90;;;;;;5098827;28;20239;-43
2023/07/30 03:37:02;;;;;;;4.97;1.40;;;15.50;99.90;;;;;;5097878;28;20214;-48
2023/07/30 03:39:27;;;;;;;6.43;1.70;;;15.40;99.90;;;;;;5116572;28;20201;-46
2023/07/30 03:41:53;;;;;;;5.90;1.50;;;15.30;99.90;;;;;;5097405;28;20200;-47
2023/07/30 03:44:18;;;;;;;6.40;1.40;;;15.30;99.90;;;;;;5115963;28;20646;-46
2023/07/30 03:46:44;;;;;;;6.13;1.20;;;15.20;99.90;;;;;;5098057;28;20213;-48
2023/07/30 03:49:10;;;;;;;6.77;1.57;;;15.20;99.90;;;;;;5116118;28;20167;-47
2023/07/30 03:51:36;;;;;;;3.17;1.20;;;15.20;99.90;;;;;;5115953;28;20190;-45
2023/07/30 03:54:01;;;;;;;3.50;1.10;;;15.10;99.90;;;;;;5115611;28;20186;-47
2023/07/30 03:56:27;;;;;;;6.37;1.50;;;15.10;99.90;;;;;;5096942;28;20218;-47
2023/07/30 03:58:53;;;;;;;9.93;1.93;;;15.10;99.90;;;;;;5114302;28;20179;-47
2023/07/30 04:01:18;;;;;;;6.57;1.47;;;15.10;99.90;;;;;;5115626;28;20267;-46
2023/07/30 04:03:44;;;;;;;4.43;1.30;;;15.10;99.90;;;;;;5116027;28;20182;-47
2023/07/30 04:06:10;;;;;;;5.17;1.40;;;15.10;99.90;;;;;;5115457;28;20259;-47
2023/07/30 04:08:35;;;;;;;13.20;1.33;;;15.10;99.90;;;;;;5116446;28;20186;-47
2023/07/30 04:11:01;;;;;;;1.97;0.93;;;15.10;99.90;;;;;;5115431;28;20186;-48
2023/07/30 04:13:27;;;;;;;4.73;1.43;;;15.20;99.90;;;;;;5115412;28;20288;-48
2023/07/30 04:15:52;;;;;;;7.50;1.47;;;15.20;99.90;;;;;;5115613;28;20202;-47
2023/07/30 04:18:19;;;;;;;2.93;1.17;;;15.20;99.90;;;;;;5115497;28;20175;-47
2023/07/30 04:20:45;;;;;;;4.50;1.50;;;15.30;99.90;;;;;;5115086;28;20726;-47
2023/07/30 04:23:10;;;;;;;7.13;1.17;;;15.30;99.90;;;;;;5115379;28;20178;-47
2023/07/30 04:25:36;;;;;;;5.23;1.33;;;15.30;99.90;;;;;;5115322;28;20243;-47
2023/07/30 04:28:02;;;;;;;3.80;1.20;;;15.30;99.90;;;;;;5096645;28;20277;-47
2023/07/30 04:30:27;;;;;;;5.43;1.43;;;15.30;99.90;;;;;;5114829;28;20523;-48
2023/07/30 04:32:53;;;;;;;4.47;1.30;;;15.30;99.90;;;;;;5096487;28;20194;-48
2023/07/30 04:35:18;;;;;;;3.77;1.10;;;15.20;99.90;;;;;;5096594;28;20686;-46
2023/07/30 04:37:44;;;;;;;6.70;1.27;;;15.20;99.90;;;;;;5115074;28;20642;-48
2023/07/30 04:40:10;;;;;;;8.90;1.30;;;15.10;99.90;;;;;;5096237;28;20217;-47
2023/07/30 04:42:36;;;;;;;5.17;1.13;;;15.10;99.90;;;;;;5114789;28;20204;-47
2023/07/30 04:45:02;;;;;;;3.07;1.10;;;15.00;99.90;;;;;;5114748;28;20265;-49
2023/07/30 04:47:28;;;;;;;4.70;0.93;;;15.00;99.90;;;;;;5114777;28;20182;-47
2023/07/30 04:49:53;;;;;;;5.43;1.10;;;14.90;99.90;;;;;;5096373;28;20208;-48
2023/07/30 04:52:19;;;;;;;2.73;1.20;;;14.90;99.90;;;;;;5096145;28;20621;-47
2023/07/30 04:54:45;;;;;;;3.97;1.07;;;14.90;99.90;;;;;;5114487;28;20550;-47
2023/07/30 04:57:11;;;;;;;4.37;1.30;;;14.90;99.90;;;;;;5095905;28;20947;-48
2023/07/30 04:59:37;;;;;;;3.73;1.20;;;14.90;99.90;;;;;;5114639;28;20577;-47
2023/07/30 05:02:03;;;;;;;4.53;0.90;;;14.80;99.90;;;;;;5095819;28;20184;-47
2023/07/30 05:04:29;;;;;;;3.70;1.10;;;14.80;99.90;;;;;;5113048;28;20189;-46
2023/07/30 05:06:54;;;;;;;8.27;1.53;;;14.80;99.90;;;;;;5096146;28;20250;-47
2023/07/30 05:09:20;;;;;;;6.73;1.10;;;14.80;99.90;;;;;;5113951;28;20182;-47
2023/07/30 05:11:45;;;;;;;12.80;1.70;;;14.80;99.90;;;;;;5114193;28;20182;-47
2023/07/30 05:14:11;;;;;;;3.83;1.00;;;14.80;99.90;;;;;;5114300;28;20190;-48
2023/07/30 05:16:37;;;;;;;3.80;1.00;;;14.80;99.90;;;;;;5114707;28;20205;-49
2023/07/30 05:19:03;;;;;;;6.67;1.70;;;14.80;99.90;;;;;;5095926;28;20240;-47
2023/07/30 05:21:29;;;;;;;8.97;1.47;;;14.80;99.90;;;;;;5114179;28;20662;-46
2023/07/30 05:23:54;;;;;;;6.70;1.63;;;14.80;99.90;;;;;;5114554;28;20177;-47
2023/07/30 05:26:20;;;;;;;5.27;1.27;;;14.80;99.90;;;;;;5114002;28;20233;-49
2023/07/30 05:28:45;;;;;;;3.63;1.27;;;14.80;99.90;;;;;;5095962;28;20270;-47
2023/07/30 05:31:11;;;;;;;6.17;1.50;;;14.90;99.90;;;;;;5095980;28;20622;-47
2023/07/30 05:33:37;;;;;;;4.53;1.20;;;14.90;99.90;;;;;;5114270;28;20666;-46
2023/07/30 05:36:02;;;;;;;4.30;1.23;;;14.90;99.90;;;;;;5113985;28;20218;-47
2023/07/30 05:38:28;;;;;;;4.50;1.40;;;14.90;99.90;;;;;;5079015;28;20182;-47
2023/07/30 05:40:54;;;;;;;3.97;1.10;;;14.90;99.90;;;;;;5113777;28;20186;-47
2023/07/30 05:43:19;;;;;;;2.50;1.03;;;14.90;99.90;;;;;;5095729;28;20182;-46
2023/07/30 05:45:45;;;;;;;5.50;1.37;;;14.90;99.90;;;;;;5095732;28;20669;-48
2023/07/30 05:48:11;;;;;;;4.67;1.20;;;14.90;99.90;;;;;;5114183;28;20282;-46
2023/07/30 05:50:36;;;;;;;5.87;1.20;;;15.00;99.90;;;;;;5095460;28;20188;-47
2023/07/30 05:53:02;;;;;;;2.57;1.33;;;15.00;99.90;;;;;;5095751;28;20284;-46
2023/07/30 05:55:28;;;;;;;4.37;1.40;;;15.10;99.90;;;;;;5095339;28;20320;-47
2023/07/30 05:57:55;;;;;;;5.60;1.40;;;15.10;99.90;;;;;;5114071;28;20257;-46
2023/07/30 06:00:20;;;;;;;3.37;1.33;;;15.10;99.90;;;;;;5114172;28;20613;-47
2023/07/30 06:02:46;;;;;;;4.17;1.50;;;15.20;99.90;;;;;;5114463;28;20221;-45
2023/07/30 06:05:12;;;;;;;3.30;1.30;;;15.30;99.90;;;;;;5095708;28;20182;-47
2023/07/30 06:07:37;;;;;;;4.47;1.20;;;15.30;99.90;;;;;;5096529;28;20277;-46
2023/07/30 06:10:03;;;;;;;7.93;1.50;;;15.30;99.90;;;;;;5114303;28;20654;-46
2023/07/30 06:12:29;;;;;;;4.70;1.20;;;15.30;99.90;;;;;;5114579;28;20182;-47
2023/07/30 06:14:55;;;;;;;2.90;1.40;;;15.40;99.90;;;;;;5113936;28;20194;-41
2023/07/30 06:17:20;;;;;;;3.70;1.20;;;15.50;99.90;;;;;;5095270;28;20250;-42
2023/07/30 06:19:46;;;;;;;6.90;1.43;;;15.50;99.90;;;;;;5113580;28;20590;-43
2023/07/30 06:22:12;;;;;;;7.70;1.73;;;15.50;99.90;;;;;;5115295;28;20227;-42
2023/07/30 06:24:37;;;;;;;8.60;1.87;;;15.50;99.90;;;;;;5117712;28;20178;-44
2023/07/30 06:27:04;;;;;;;5.37;1.63;;;15.60;99.90;;;;;;5117393;28;20255;-41
2023/07/30 06:29:29;;;;;;;5.93;1.77;;;15.60;99.90;;;;;;5118236;28;20190;-40
2023/07/30 06:31:55;;;;;;;8.20;1.70;;;15.70;99.90;;;;;;5099642;28;20202;-43
2023/07/30 06:34:20;;;;;;;7.60;1.77;;;15.70;99.90;;;;;;5117787;28;20188;-45
2023/07/30 06:36:49;;;;;;;6.90;1.73;;;15.80;99.90;;;;;;5117125;28;20209;-41
2023/07/30 06:39:15;;;;;;;6.73;1.50;;;15.80;99.90;;;;;;5117131;28;20186;-43
2023/07/30 06:41:40;;;;;;;5.17;2.20;;;15.90;99.90;;;;;;5098968;28;20233;-42
2023/07/30 06:44:06;;;;;;;5.90;1.50;;;16.00;99.90;;;;;;5117292;28;20733;-43
2023/07/30 06:46:31;;;;;;;4.73;1.70;;;16.00;99.90;;;;;;5098947;28;20214;-41
2023/07/30 06:48:57;;;;;;;6.40;1.63;;;16.10;99.90;;;;;;5099007;28;20190;-43
2023/07/30 06:51:27;;;;;;;6.50;1.90;;;16.10;99.90;;;;;;5117153;28;20557;-43
2023/07/30 06:53:52;;;;;;;3.37;1.53;;;16.20;99.90;;;;;;5098926;28;20208;-41
2023/07/30 06:56:19;;;;;;;6.40;1.90;;;16.30;99.90;;;;;;5098337;28;20222;-43
2023/07/30 06:58:45;;;;;;;9.67;2.07;;;16.30;99.90;;;;;;5098472;28;20553;-44
2023/07/30 07:01:10;;;;;;;8.33;2.03;;;16.40;99.90;;;;;;5098633;28;20190;-43
2023/07/30 07:03:36;;;;;;;7.33;2.00;;;16.40;99.90;;;;;;5098516;28;20190;-41
2023/07/30 07:06:01;;;;;;;8.50;1.93;;;16.50;99.90;;;;;;5116652;28;20264;-40
2023/07/30 07:08:27;;;;;;;6.17;1.47;;;16.50;99.90;;;;;;5098572;28;20190;-43
2023/07/30 07:10:53;;;;;;;4.30;1.77;;;16.60;99.90;;;;;;5098120;28;20197;-42
2023/07/30 07:13:18;;;;;;;6.50;1.93;;;16.60;99.90;;;;;;5098363;28;20684;-43
2023/07/30 07:15:45;;;;;;;9.17;1.87;;;16.70;99.90;;;;;;5116420;28;20221;-41
2023/07/30 07:18:11;;;;;;;7.70;1.67;;;16.70;99.90;;;;;;5098485;28;20190;-43
2023/07/30 07:20:37;;;;;;;6.83;2.10;;;16.60;99.90;;;;;;5098215;28;20202;-44
2023/07/30 07:23:03;;;;;;;9.23;2.50;;;16.70;99.90;;;;;;5116466;28;20187;-43
2023/07/30 07:25:29;;;;;;;11.70;2.00;;;16.70;99.90;;;;;;5116338;28;20229;-44
2023/07/30 07:27:55;;;;;;;9.73;2.20;;;16.80;99.90;;;;;;5116633;28;20186;-41
2023/07/30 07:30:21;;;;;;;14.03;2.43;;;16.80;99.90;;;;;;5116173;28;20550;-42
2023/07/30 07:32:50;;;;;;;10.47;2.63;;;16.90;99.90;;;;;;5115875;28;20212;-43
2023/07/30 07:35:18;;;;;;;15.57;2.37;;;16.90;99.90;;;;;;5116540;28;20182;-43
2023/07/30 07:37:44;;;;;;;8.97;2.40;;;17.00;99.90;;;;;;5116028;28;20574;-42
2023/07/30 07:40:10;;;;;;;13.57;2.80;;;17.00;99.90;;;;;;5116755;28;20187;-42
2023/07/30 07:42:38;;;;;;;12.03;2.30;;;17.10;99.90;;;;;;5098138;28;20194;-42
2023/07/30 07:45:04;;;;;;;8.37;2.50;;;17.10;99.90;;;;;;5116758;28;20178;-43
2023/07/30 07:47:30;;;;;;;9.60;2.17;;;17.10;99.90;;;;;;5117528;28;20186;-42
2023/07/30 07:49:56;;;;;;;8.60;2.10;;;17.20;99.90;;;;;;5116020;28;20654;-42
2023/07/30 07:52:21;;;;;;;10.23;2.43;;;17.20;99.90;;;;;;5116467;28;20190;-42
2023/07/30 07:54:47;;;;;;;8.50;2.70;;;17.10;99.90;;;;;;5097475;28;20189;-41
2023/07/30 07:57:13;;;;;;;8.37;3.00;;;17.10;99.90;;;;;;5097320;28;20641;-42
2023/07/30 07:59:38;;;;;;;11.63;2.43;;;17.10;99.90;;;;;;5115825;28;20535;-40
2023/07/30 08:02:05;;;;;;;10.70;2.30;;;17.10;99.90;;;;;;5097415;28;20194;-43
2023/07/30 08:04:30;;;;;;;9.63;2.33;;;17.10;99.90;;;;;;5115796;28;20174;-44
2023/07/30 08:06:59;;;;;;;11.53;2.40;;;17.10;99.90;;;;;;5115698;28;20275;-44
2023/07/30 08:09:25;;;;;;;11.20;2.10;;;17.20;99.90;;;;;;5115596;28;20311;-41
2023/07/30 08:11:51;;;;;;;13.33;2.87;;;17.20;99.90;;;;;;5115470;28;20217;-40
2023/07/30 08:14:16;;;;;;;15.40;2.53;;;17.20;99.90;;;;;;5115705;28;20194;-42
2023/07/30 08:16:42;;;;;;;7.53;2.00;;;17.20;99.90;;;;;;5115491;28;20278;-42
2023/07/30 08:19:08;;;;;;;11.67;2.57;;;17.30;99.90;;;;;;5115346;28;20201;-47
2023/07/30 08:21:34;;;;;;;9.33;2.00;;;17.40;99.90;;;;;;5096910;28;20202;-48
2023/07/30 08:24:00;;;;;;;9.83;2.13;;;17.50;99.90;;;;;;5115401;28;20182;-46
2023/07/30 08:26:26;;;;;;;13.60;2.97;;;17.50;99.90;;;;;;5096644;28;20221;-46
2023/07/30 08:28:52;;;;;;;10.73;1.97;;;17.60;99.90;;;;;;5115144;28;20279;-46
2023/07/30 08:31:18;;;;;;;10.00;3.00;;;17.70;99.90;;;;;;5096576;28;20225;-46
2023/07/30 08:33:44;;;;;;;9.40;1.87;;;17.70;99.90;;;;;;5115148;28;20247;-47
2023/07/30 08:36:10;;;;;;;8.90;2.70;;;17.80;99.90;;;;;;5096810;28;20708;-47
2023/07/30 08:38:36;;;;;;;6.23;2.20;;;17.90;99.90;;;;;;5114862;28;20216;-46
2023/07/30 08:41:02;;;;;;;7.73;1.63;;;17.90;99.90;;;;;;5096481;28;20189;-46
2023/07/30 08:43:29;;;;;;;14.87;2.90;;;18.00;99.90;;;;;;5096600;28;20193;-45
2023/07/30 08:45:56;;;;;;;9.57;2.10;;;17.90;99.90;;;;;;5096028;28;20288;-46
2023/07/30 08:48:21;;;;;;;10.47;2.87;;;17.90;99.90;;;;;;5096709;28;20197;-46
2023/07/30 08:50:50;;;;;;;6.40;2.57;;;17.90;99.90;;;;;;5096671;28;20190;-46
2023/07/30 08:53:16;;;;;;;8.37;1.90;;;17.90;99.90;;;;;;5096676;28;20190;-47
2023/07/30 08:55:42;;;;;;;6.37;1.83;;;18.00;99.90;;;;;;5114720;28;20216;-47
2023/07/30 08:58:14;;;;;;;10.17;3.10;;;18.00;99.90;;;;;;5097908;28;20194;-41
2023/07/30 09:00:42;;;;;;;6.73;1.70;;;18.00;99.90;;;;;;5098525;28;20281;-44
2023/07/30 09:03:16;;;;;;;6.53;1.80;;;18.00;99.90;;;;;;5097937;28;20221;-42
2023/07/30 09:05:42;;;;;;;9.10;2.20;;;18.10;99.90;;;;;;5098436;28;20204;-44
2023/07/30 09:08:09;;;;;;;11.13;2.27;;;18.10;99.90;;;;;;5116473;28;20187;-49
2023/07/30 09:10:35;;;;;;;9.20;2.63;;;18.20;99.90;;;;;;5098737;28;20186;-47
2023/07/30 09:13:02;;;;;;;9.37;2.10;;;18.20;99.90;;;;;;5097362;28;20368;-44
2023/07/30 09:15:39;;;;;;;12.87;2.10;;;18.30;99.90;;;;;;5098240;28;20293;-46
2023/07/30 09:18:08;;;;;;;9.73;2.63;;;18.50;99.90;;;;;;5117034;28;20166;-48
2023/07/30 09:20:45;;;;;;;5.63;1.70;;;18.50;99.90;;;;;;5082330;28;20217;-42
2023/07/30 09:23:12;;;;;;;5.70;1.57;;;18.60;99.90;;;;;;5117124;28;20174;-48
2023/07/30 09:25:38;;;;;;;8.43;1.93;;;18.70;99.90;;;;;;5098935;28;20206;-46
2023/07/30 09:28:06;;;;;;;11.33;1.97;;;18.80;99.90;;;;;;5097365;28;20186;-44
2023/07/30 09:30:37;;;;;;;10.97;2.50;;;18.80;99.90;;;;;;5116300;28;20179;-42
2023/07/30 09:33:03;;;;;;;8.50;2.13;;;18.90;99.90;;;;;;5097193;28;20175;-49
2023/07/30 09:35:32;;;;;;;8.07;2.27;;;19.00;99.90;;;;;;5098339;28;20636;-42
2023/07/30 09:38:14;;;;;;;8.83;1.90;;;19.10;99.90;;;;;;5097383;28;20282;-43
2023/07/30 09:40:43;;;;;;;9.13;2.70;;;19.10;99.90;;;;;;5096193;28;20595;-47
2023/07/30 09:43:09;;;;;;;9.43;2.10;;;19.40;99.90;;;;;;5098729;28;20182;-43
2023/07/30 09:45:41;;;;;;;8.70;1.80;;;19.70;99.90;;;;;;5117762;28;20194;-44
2023/07/30 09:48:07;;;;;;;6.27;1.67;;;19.90;99.90;;;;;;5097991;28;20186;-49
2023/07/30 09:50:38;;;;;;;5.83;1.63;;;20.20;99.90;;;;;;5097427;28;20186;-47
2023/07/30 09:53:04;;;;;;;6.80;1.83;;;20.50;99.90;;;;;;5115860;28;20186;-49
2023/07/30 09:55:30;;;;;;;8.60;1.80;;;20.50;99.90;;;;;;5097707;28;20224;-45
2023/07/30 09:58:00;;;;;;;6.47;1.33;;;20.50;99.90;;;;;;5119580;28;20197;-43
2023/07/30 10:00:33;;;;;;;6.90;2.17;;;20.50;99.90;;;;;;5101036;28;20186;-44
2023/07/30 10:03:01;;;;;;;5.57;1.50;;;20.50;99.90;;;;;;5119654;28;20580;-49
2023/07/30 10:05:36;;;;;;;4.07;1.13;;;20.50;99.90;;;;;;5119996;28;20198;-44
2023/07/30 10:08:13;;;;;;;6.37;1.63;;;20.50;99.90;;;;;;5119781;28;20169;-45
2023/07/30 10:10:39;;;;;;;5.00;1.60;;;20.50;99.90;;;;;;5102498;28;20220;-47
2023/07/30 10:13:08;;;;;;;5.53;1.43;;;20.60;99.90;;;;;;5120506;28;20521;-44
2023/07/30 10:15:38;;;;;;;5.43;1.60;;;20.60;99.90;;;;;;5102347;28;20217;-44
2023/07/30 10:18:04;;;;;;;7.30;1.47;;;20.70;99.90;;;;;;5119539;28;20198;-49
2023/07/30 10:20:31;;;;;;;8.10;1.40;;;20.80;99.90;;;;;;5119924;28;20198;-49
2023/07/30 10:22:59;;;;;;;5.43;1.47;;;21.00;99.90;;;;;;5121194;28;20578;-50
2023/07/30 10:25:30;;;;;;;6.57;1.70;;;21.10;99.90;;;;;;5103004;28;20206;-45
2023/07/30 10:27:58;;;;;;;6.47;1.40;;;21.10;99.90;;;;;;5101628;28;20194;-48
2023/07/30 10:30:31;;;;;;;4.50;1.20;;;21.30;99.90;;;;;;5084723;28;20540;-47
2023/07/30 10:32:59;;;;;;;4.53;1.13;;;21.50;99.90;;;;;;5119201;28;20174;-43
2023/07/30 10:35:54;;;;;;;3.97;1.03;;;21.50;99.90;;;;;;5118899;28;20201;-44
2023/07/30 10:38:28;;;;;;;6.47;1.20;;;21.60;99.90;;;;;;5101209;28;20186;-44
2023/07/30 10:41:05;;;;;;;7.70;1.30;;;21.70;99.90;;;;;;5101309;28;20177;-46
2023/07/30 10:43:38;;;;;;;5.37;1.27;;;21.60;99.90;;;;;;5101174;28;20170;-49
2023/07/30 10:46:05;;;;;;;5.63;1.57;;;21.50;99.90;;;;;;5119038;28;20224;-45
2023/07/30 10:48:43;;;;;;;7.73;1.50;;;21.50;99.90;;;;;;5100716;28;20218;-44
2023/07/30 10:51:16;;;;;;;6.13;1.50;;;21.40;99.90;;;;;;5100476;28;20203;-45
2023/07/30 10:53:46;;;;;;;4.83;1.30;;;21.30;99.90;;;;;;5118695;28;20190;-44
2023/07/30 10:56:13;;;;;;;6.10;1.63;;;21.30;99.90;;;;;;5099940;28;20637;-45
2023/07/30 10:58:53;;;;;;;7.67;1.20;;;21.30;99.90;;;;;;5119211;28;20253;-43
2023/07/30 11:01:19;;;;;;;7.47;1.90;;;21.20;99.90;;;;;;5100172;28;20274;-49
2023/07/30 11:03:52;;;;;;;6.53;1.23;;;21.10;99.90;;;;;;5119121;28;20218;-49
2023/07/30 11:06:26;;;;;;;7.53;1.57;;;21.20;99.90;;;;;;5100555;28;20578;-49
2023/07/30 11:08:52;;;;;;;4.10;1.30;;;21.20;99.90;;;;;;5099706;28;20190;-44
2023/07/30 11:11:18;;;;;;;6.97;1.37;;;21.20;99.90;;;;;;5119024;28;20551;-51
2023/07/30 11:13:46;;;;;;;6.07;1.30;;;21.10;99.90;;;;;;5118737;28;20193;-45
2023/07/30 11:16:13;;;;;;;6.97;1.70;;;21.10;99.90;;;;;;5100057;28;20274;-45
2023/07/30 11:18:40;;;;;;;7.47;2.40;;;21.10;99.90;;;;;;5100532;28;20190;-52
2023/07/30 11:21:18;;;;;;;8.43;1.60;;;21.20;99.90;;;;;;5118053;28;20202;-44
2023/07/30 11:23:45;;;;;;;6.20;1.80;;;21.20;99.90;;;;;;5100086;28;20530;-49
2023/07/30 11:26:33;;;;;;;4.60;1.40;;;21.20;99.90;;;;;;5099682;28;20214;-45
2023/07/30 11:29:20;;;;;;;6.57;1.50;;;21.10;99.90;;;;;;5083258;28;20235;-42
2023/07/30 11:31:47;;;;;;;7.63;1.67;;;21.10;99.90;;;;;;5118219;28;20499;-49
2023/07/30 11:34:14;;;;;;;4.23;1.60;;;20.90;99.90;;;;;;5118008;28;20162;-48
2023/07/30 11:36:42;;;;;;;3.47;1.00;;;20.70;99.90;;;;;;5099550;28;20689;-45
2023/07/30 11:39:17;;;;;;;6.20;1.20;;;20.40;99.90;;;;;;5118434;28;20185;-44
2023/07/30 11:41:43;;;;;;;2.67;1.23;;;20.20;99.90;;;;;;5099849;28;20322;-44
2023/07/30 11:44:28;;;;;;;3.63;1.27;;;19.90;99.90;;;;;;5118011;28;20639;-43
2023/07/30 11:47:00;;;;;;;3.10;1.20;;;19.70;99.90;;;;;;5117728;28;20285;-43
2023/07/30 11:50:00;;;;;;;6.30;1.20;;;19.50;99.90;;;;;;5099686;28;20200;-48
2023/07/30 11:52:26;;;;;;;4.40;1.37;;;19.50;99.90;;;;;;5115497;28;20194;-43
2023/07/30 11:55:06;;;;;;;4.37;1.30;;;19.60;99.90;;;;;;5117909;28;20186;-49
2023/07/30 11:57:36;;;;;;;5.07;1.30;;;19.70;99.90;;;;;;5117513;28;20205;-49
2023/07/30 12:00:03;;;;;;;3.83;1.30;;;19.80;99.90;;;;;;5117406;28;20193;-50
2023/07/30 12:02:30;;;;;;;4.10;1.40;;;19.90;99.90;;;;;;5099060;28;20273;-43
2023/07/30 12:04:56;;;;;;;6.50;1.57;;;20.00;99.90;;;;;;5099244;28;20270;-49
2023/07/30 12:07:42;;;;;;;5.30;1.10;;;20.20;99.90;;;;;;5099593;28;20579;-44
2023/07/30 12:10:13;;;;;;;5.80;1.30;;;20.30;99.90;;;;;;5100401;28;20183;-49
2023/07/30 12:12:46;;;;;;;4.97;1.53;;;20.40;99.90;;;;;;5099088;28;20194;-43
2023/07/30 12:15:23;;;;;;;4.30;1.33;;;20.60;99.90;;;;;;5116818;28;20186;-42
2023/07/30 12:17:50;;;;;;;4.90;1.20;;;20.70;99.90;;;;;;5099691;28;20204;-43
2023/07/30 12:20:16;;;;;;;5.13;1.50;;;20.70;99.90;;;;;;5097855;28;20202;-43
2023/07/30 12:22:48;;;;;;;6.53;1.30;;;20.90;99.90;;;;;;5099428;28;20573;-43
2023/07/30 12:25:16;;;;;;;6.20;1.53;;;20.80;99.90;;;;;;5098991;28;20557;-49
2023/07/30 12:27:56;;;;;;;6.10;1.87;;;20.80;99.90;;;;;;5098686;28;20222;-42
2023/07/30 12:30:23;;;;;;;3.90;1.20;;;20.70;99.90;;;;;;5099262;28;20190;-43
2023/07/30 12:32:49;;;;;;;4.50;1.40;;;20.50;99.90;;;;;;5116593;28;20201;-44
2023/07/30 12:35:18;;;;;;;6.37;1.80;;;20.40;99.90;;;;;;5116866;28;20565;-42
2023/07/30 12:37:47;;;;;;;8.33;1.40;;;20.40;99.90;;;;;;5098261;28;20224;-50
2023/07/30 12:40:21;;;;;;;7.20;2.17;;;20.50;99.90;;;;;;5092919;28;20531;-44
2023/07/30 12:42:47;;;;;;;5.60;1.37;;;20.60;99.90;;;;;;5091244;28;20236;-50
2023/07/30 12:45:23;;;;;;;7.57;1.57;;;20.70;99.90;;;;;;5090697;28;20225;-43
2023/07/30 12:47:50;;;;;;;5.17;1.57;;;20.70;99.90;;;;;;5092297;28;20165;-49